Time;durP1;ratioP1;P1;durP2;ratioP2;P2;SDS_P1;SDS_P2;PMS_P1;PMS_P2;Temp;Humidity;BMP_temperature;BMP_pressure;BME280_temperature;BME280_humidity;BME280_pressure;Samples;Min_cycle;Max_cycle;Signal;HPM_P1;HPM_P2
2022/06/08 00:00:42;;;;;;;;;3.00;3.00;;;;;20.36;53.88;100652.59;5023195;28;45229;-72
2022/06/08 00:03:12;;;;;;;;;2.67;2.00;;;;;20.34;54.13;100654.69;5017642;28;46056;-71
2022/06/08 00:05:37;;;;;;;;;2.00;2.00;;;;;20.31;53.98;100655.09;5032555;28;45889;-74
2022/06/08 00:08:03;;;;;;;;;3.33;1.67;;;;;20.15;53.99;100611.50;5036124;28;45474;-73
2022/06/08 00:10:29;;;;;;;;;1.67;1.67;;;;;20.32;53.95;100647.84;5033352;28;45432;-71
2022/06/08 00:12:55;;;;;;;;;2.67;2.33;;;;;20.25;53.78;100626.25;5022173;28;47309;-72
2022/06/08 00:15:21;;;;;;;;;2.00;2.00;;;;;20.27;53.93;100624.19;5018885;28;45417;-72
2022/06/08 00:17:46;;;;;;;;;3.00;2.00;;;;;20.02;53.74;100580.81;5030044;28;45416;-74
2022/06/08 00:20:12;;;;;;;;;3.67;1.33;;;;;20.08;54.12;100602.59;5021186;28;45399;-71
2022/06/08 00:22:39;;;;;;;;;3.00;3.00;;;;;19.95;53.96;100573.75;5024328;28;45545;-72
2022/06/08 00:25:06;;;;;;;;;1.33;1.33;;;;;20.27;53.82;100616.06;5031192;28;45389;-74
2022/06/08 00:27:31;;;;;;;;;3.33;1.00;;;;;20.08;53.69;100570.22;5026179;28;45620;-72
2022/06/08 00:29:57;;;;;;;;;3.00;3.00;;;;;20.31;53.23;100606.50;5026110;28;45262;-71
2022/06/08 00:32:23;;;;;;;;;2.00;1.00;;;;;19.91;53.49;100548.25;5028363;28;45468;-74
2022/06/08 00:34:48;;;;;;;;;3.00;3.00;;;;;20.26;53.56;100603.63;5037843;28;45408;-71
2022/06/08 00:37:14;;;;;;;;;5.00;2.00;;;;;20.27;53.59;100616.06;5036550;28;45411;-72
2022/06/08 00:39:39;;;;;;;;;2.33;2.00;;;;;20.21;54.02;100598.00;5039515;28;45187;-72
2022/06/08 00:42:11;;;;;;;;;3.67;3.00;;;;;20.20;54.49;100599.03;5021461;28;48645;-71
2022/06/08 00:44:45;;;;;;;;;2.00;2.00;;;;;20.19;54.90;100588.47;5035941;28;46703;-72
2022/06/08 00:47:16;;;;;;;;;3.00;2.00;;;;;19.77;55.00;100527.69;5039071;28;45551;-73
2022/06/08 00:49:56;;;;;;;;;2.00;2.00;;;;;20.10;55.21;100592.44;5029501;28;45322;-74
2022/06/08 00:52:22;;;;;;;;;4.67;2.00;;;;;20.07;55.43;100585.59;5027657;28;46742;-72
2022/06/08 00:54:52;;;;;;;;;2.00;1.00;;;;;19.89;55.70;100551.16;5017277;28;45502;-74
2022/06/08 00:57:24;;;;;;;;;2.00;2.00;;;;;20.09;56.24;100588.91;5025429;28;45337;-71
2022/06/08 01:00:00;;;;;;;;;4.33;2.00;;;;;19.87;56.15;100547.00;5025058;28;45463;-72
2022/06/08 01:02:26;;;;;;;;;2.00;2.00;;;;;19.89;56.83;100544.91;5016767;28;46184;-71
2022/06/08 01:05:23;;;;;;;;;2.33;2.33;;;;;20.04;56.72;100572.50;5030943;28;45399;-71
2022/06/08 01:07:54;;;;;;;;;3.33;3.33;;;;;20.05;56.85;100582.28;5037036;28;45375;-71
2022/06/08 01:10:28;;;;;;;;;2.00;1.33;;;;;20.06;57.09;100575.84;5034256;28;45494;-73
2022/06/08 01:12:56;;;;;;;;;2.67;2.67;;;;;19.65;57.56;100514.88;5028255;28;45495;-71
2022/06/08 01:15:25;;;;;;;;;3.00;3.00;;;;;19.98;57.62;100584.13;5036898;28;45466;-72
2022/06/08 01:17:51;;;;;;;;;2.00;2.00;;;;;19.96;57.77;100575.41;5035584;28;45304;-71
2022/06/08 01:20:17;;;;;;;;;3.00;3.00;;;;;19.94;57.71;100574.78;5036887;28;45245;-71
2022/06/08 01:22:42;;;;;;;;;4.00;4.00;;;;;19.43;57.73;100494.53;5035379;28;48660;-72
2022/06/08 01:25:10;;;;;;;;;2.00;2.00;;;;;19.67;57.64;100538.94;5037074;28;45289;-72
2022/06/08 01:27:44;;;;;;;;;5.00;2.00;;;;;19.89;57.53;100580.00;5038920;28;45529;-73
2022/06/08 01:30:40;;;;;;;;;3.33;2.00;;;;;19.09;57.64;100439.78;5035582;28;45574;-73
2022/06/08 01:33:18;;;;;;;;;3.33;2.00;;;;;19.88;57.57;100559.44;5018501;28;48265;-73
2022/06/08 01:35:53;;;;;;;;;5.33;3.00;;;;;19.88;57.47;100557.59;5047663;28;45349;-74
2022/06/08 01:38:38;;;;;;;;;3.67;2.00;;;;;19.53;57.70;100516.50;5039664;28;45577;-71
2022/06/08 01:41:37;;;;;;;;;1.33;1.33;;;;;19.84;57.47;100567.13;5028506;28;45585;-71
2022/06/08 01:44:31;;;;;;;;;4.33;3.00;;;;;19.72;57.47;100552.63;5024998;28;46801;-72
2022/06/08 01:47:02;;;;;;;;;1.00;1.00;;;;;19.54;57.42;100518.19;5027807;28;45439;-71
2022/06/08 01:49:37;;;;;;;;;4.67;2.00;;;;;19.67;57.71;100566.72;5034534;28;45344;-73
2022/06/08 01:52:09;;;;;;;;;3.33;2.00;;;;;19.86;57.35;100588.50;5020415;28;45383;-72
2022/06/08 01:54:53;;;;;;;;;3.33;3.33;;;;;19.84;57.38;100588.72;5020820;28;46908;-72
2022/06/08 01:57:46;;;;;;;;;1.67;1.67;;;;;19.83;57.60;100581.66;5034889;28;45474;-72
2022/06/08 02:00:35;;;;;;;;;3.00;1.67;;;;;19.82;57.74;100573.75;5033862;28;45458;-72
2022/06/08 02:03:22;;;;;;;;;1.00;1.00;;;;;19.77;57.86;100566.28;5028419;28;45322;-73
2022/06/08 02:05:57;;;;;;;;;5.33;2.33;;;;;19.73;58.18;100582.06;5028423;28;47703;-73
2022/06/08 02:08:53;;;;;;;;;3.00;2.00;;;;;19.61;58.23;100554.06;5032364;28;45410;-73
2022/06/08 02:11:41;;;;;;;;;2.67;2.33;;;;;19.76;58.55;100570.03;5027869;28;45500;-73
2022/06/08 02:14:14;;;;;;;;;2.33;2.33;;;;;18.33;58.67;100312.69;5027013;28;45289;-73
2022/06/08 02:16:46;;;;;;;;;4.00;4.00;;;;;19.64;58.53;100542.88;5026795;28;45794;-73
2022/06/08 02:19:35;;;;;;;;;2.50;2.50;;;;;19.71;59.33;100551.78;5019208;28;45525;-72
2022/06/08 02:22:10;;;;;;;;;1.00;1.00;;;;;19.57;59.05;100554.69;5034484;28;45375;-72
2022/06/08 02:24:49;;;;;;;;;2.33;2.33;;;;;19.44;59.64;100533.94;5037812;28;45476;-73
2022/06/08 02:27:21;;;;;;;;;1.00;1.00;;;;;19.61;59.64;100556.75;5025828;28;46861;-72
2022/06/08 02:29:56;;;;;;;;;3.00;2.00;;;;;19.57;59.62;100569.00;5033068;28;46176;-73
2022/06/08 02:35:18;;;;;;;;;5.00;2.00;;;;;18.90;59.83;100461.31;5031925;28;45320;-72
2022/06/08 02:37:49;;;;;;;;;3.67;2.00;;;;;19.10;60.24;100498.03;5029026;28;46063;-71
2022/06/08 02:40:23;;;;;;;;;2.00;2.00;;;;;16.77;60.35;100104.00;5019123;28;45395;-71
2022/06/08 02:42:53;;;;;;;;;2.67;1.67;;;;;19.50;61.07;100559.22;5019445;28;45384;-72
2022/06/08 02:45:30;;;;;;;;;4.33;3.00;;;;;19.29;61.39;100538.69;5037141;28;45208;-72
2022/06/08 02:48:01;;;;;;;;;2.00;2.00;;;;;19.28;61.31;100543.25;5037921;28;45621;-73
2022/06/08 02:50:27;;;;;;;;;4.00;3.00;;;;;18.62;61.77;100437.19;5038175;28;45494;-71
2022/06/08 02:53:07;;;;;;;;;3.33;2.67;;;;;19.14;62.15;100528.91;5029307;28;45253;-71
2022/06/08 02:55:51;;;;;;;;;3.00;2.00;;;;;19.19;62.33;100536.38;5017959;28;45386;-72
2022/06/08 02:58:24;;;;;;;;;6.00;2.33;;;;;19.12;62.46;100525.59;5018275;28;45778;-72
2022/06/08 03:01:00;;;;;;;;;4.33;2.00;;;;;18.55;62.21;100438.00;5025311;28;45324;-72
2022/06/08 03:03:35;;;;;;;;;4.67;4.67;;;;;18.63;62.71;100444.28;5029118;28;45637;-71
2022/06/08 03:06:10;;;;;;;;;1.00;1.00;;;;;18.16;62.83;100390.28;5027702;28;45404;-71
2022/06/08 03:08:42;;;;;;;;;3.67;2.67;;;;;18.81;62.86;100491.13;5025791;28;48656;-70
2022/06/08 03:11:09;;;;;;;;;3.67;1.67;;;;;19.04;63.36;100533.88;5034316;28;45670;-72
2022/06/08 03:13:55;;;;;;;;;2.67;2.67;;;;;19.07;63.66;100528.06;5018852;28;45265;-71
2022/06/08 03:16:31;;;;;;;;;6.00;3.67;;;;;18.88;63.73;100485.75;5018753;28;45285;-74
2022/06/08 03:18:57;;;;;;;;;3.00;3.00;;;;;18.01;64.08;100322.34;5028014;28;45632;-73
2022/06/08 03:21:24;;;;;;;;;6.00;2.33;;;;;18.42;64.03;100386.84;5018434;28;45445;-73
2022/06/08 03:23:49;;;;;;;;;2.67;2.67;;;;;19.00;64.11;100477.88;5018727;28;45485;-72
2022/06/08 03:26:17;;;;;;;;;1.33;1.33;;;;;18.79;64.60;100433.09;5027317;28;45576;-71
2022/06/08 03:28:43;;;;;;;;;3.00;3.00;;;;;18.93;64.50;100467.13;5036245;28;48270;-72
2022/06/08 03:31:08;;;;;;;;;3.33;2.67;;;;;18.89;64.25;100463.19;5026741;28;45404;-75
2022/06/08 03:33:34;;;;;;;;;3.33;3.33;;;;;18.54;64.52;100412.13;5031654;28;45233;-73
2022/06/08 03:35:59;;;;;;;;;1.00;1.00;;;;;18.80;64.86;100467.06;5039856;28;45508;-75
2022/06/08 03:38:25;;;;;;;;;5.00;2.33;;;;;18.75;64.74;100462.31;5024028;28;46105;-73
2022/06/08 03:40:50;;;;;;;;;2.00;1.00;;;;;16.83;65.04;100146.16;5031433;28;45467;-72
2022/06/08 03:43:16;;;;;;;;;2.67;1.67;;;;;18.44;64.72;100405.47;5034167;28;45286;-72
2022/06/08 03:45:47;;;;;;;;;3.67;2.00;;;;;18.45;65.14;100402.59;5029870;28;45452;-73
2022/06/08 03:48:13;;;;;;;;;3.33;3.00;;;;;18.41;65.06;100404.00;5026086;28;46484;-73
2022/06/08 03:50:43;;;;;;;;;2.67;2.00;;;;;18.61;65.72;100435.53;5022387;28;45409;-73
2022/06/08 03:53:14;;;;;;;;;2.00;1.67;;;;;18.70;65.78;100462.09;5021132;28;45285;-71
2022/06/08 03:55:40;;;;;;;;;5.00;2.33;;;;;18.67;66.36;100467.06;5040044;28;45184;-73
2022/06/08 03:58:07;;;;;;;;;5.67;3.00;;;;;18.41;66.17;100403.16;5025947;28;46699;-72
2022/06/08 04:00:33;;;;;;;;;10.33;5.00;;;;;18.07;65.89;100343.06;5032490;28;45422;-73
2022/06/08 04:02:59;;;;;;;;;7.33;6.67;;;;;18.61;66.26;100440.91;5028654;28;45371;-74
2022/06/08 04:05:25;;;;;;;;;3.33;3.33;;;;;18.45;65.95;100424.13;5016531;28;45379;-72
2022/06/08 04:07:50;;;;;;;;;4.33;3.33;;;;;18.52;66.19;100435.72;5023642;28;45298;-72
2022/06/08 04:10:15;;;;;;;;;1.33;1.00;;;;;18.60;66.57;100450.84;5035741;28;45321;-72
2022/06/08 04:12:41;;;;;;;;;3.00;3.00;;;;;18.59;66.74;100454.56;5020460;28;45504;-72
2022/06/08 04:15:07;;;;;;;;;2.00;2.00;;;;;18.64;66.86;100451.31;5029156;28;45462;-71
2022/06/08 04:17:33;;;;;;;;;2.00;2.00;;;;;18.63;66.84;100442.41;5029271;28;46857;-73
2022/06/08 04:19:58;;;;;;;;;2.33;2.33;;;;;18.36;66.87;100414.56;5035869;28;45420;-71
2022/06/08 04:22:31;;;;;;;;;3.67;3.00;;;;;18.61;67.24;100451.69;5028084;28;45468;-72
2022/06/08 04:24:58;;;;;;;;;4.00;3.00;;;;;18.35;67.27;100395.91;5037331;28;45611;-72
2022/06/08 04:27:24;;;;;;;;;6.00;3.00;;;;;18.33;66.97;100406.88;5019500;28;46430;-72
2022/06/08 04:29:51;;;;;;;;;3.33;3.33;;;;;18.27;67.11;100396.13;5023213;28;45480;-71
2022/06/08 04:32:18;;;;;;;;;4.67;4.67;;;;;18.29;67.24;100397.56;5029343;28;45457;-73
2022/06/08 04:34:43;;;;;;;;;3.67;3.00;;;;;17.54;66.84;100277.47;5024513;28;45335;-72
2022/06/08 04:37:09;;;;;;;;;4.33;2.67;;;;;18.25;67.35;100393.63;5035169;28;47895;-72
2022/06/08 04:39:34;;;;;;;;;2.00;2.00;;;;;17.90;67.63;100331.00;5026153;28;45266;-71
2022/06/08 04:42:00;;;;;;;;;3.67;2.67;;;;;18.45;67.29;100407.97;5017395;28;45435;-71
2022/06/08 04:44:26;;;;;;;;;4.00;2.67;;;;;18.34;67.41;100407.72;5025643;28;45337;-73
2022/06/08 04:46:52;;;;;;;;;3.00;3.00;;;;;18.42;67.53;100419.16;5013096;28;45675;-71
2022/06/08 04:49:17;;;;;;;;;3.33;3.33;;;;;18.15;67.59;100377.03;4991962;28;45734;-73
2022/06/08 04:51:43;;;;;;;;;6.00;4.00;;;;;18.23;67.31;100380.38;5000743;28;45346;-72
2022/06/08 04:54:08;;;;;;;;;2.67;1.67;;;;;18.26;67.96;100397.97;4996185;28;45637;-74
2022/06/08 04:56:34;;;;;;;;;4.00;4.00;;;;;17.77;68.05;100321.03;4999196;28;46536;-72
2022/06/08 04:59:01;;;;;;;;;4.00;2.00;;;;;18.20;67.81;100386.13;5014364;28;45373;-73
2022/06/08 05:01:26;;;;;;;;;7.67;4.33;;;;;18.11;68.15;100375.78;5001814;28;45502;-73
2022/06/08 05:03:52;;;;;;;;;3.00;2.00;;;;;18.29;68.11;100388.66;4997782;28;45321;-74
2022/06/08 05:06:18;;;;;;;;;4.00;4.00;;;;;18.04;68.26;100369.56;5004704;28;45858;-74
2022/06/08 05:08:43;;;;;;;;;1.33;1.33;;;;;18.03;68.25;100362.50;4984756;28;45427;-74
2022/06/08 05:11:09;;;;;;;;;2.00;2.00;;;;;18.07;68.45;100372.66;5017662;28;45256;-73
2022/06/08 05:13:36;;;;;;;;;4.33;2.67;;;;;17.83;68.96;100347.13;4997808;28;45421;-72
2022/06/08 05:16:05;;;;;;;;;5.00;5.00;;;;;18.10;68.72;100390.25;5009797;28;46953;-73
2022/06/08 05:18:30;;;;;;;;;3.00;3.00;;;;;17.00;68.81;100205.72;5016215;28;45405;-76
2022/06/08 05:20:57;;;;;;;;;3.00;2.00;;;;;18.03;68.77;100384.03;5000285;28;46060;-71
2022/06/08 05:23:27;;;;;;;;;2.33;2.00;;;;;18.01;69.16;100381.50;5009964;28;45342;-73
2022/06/08 05:25:53;;;;;;;;;3.00;2.00;;;;;17.76;69.11;100340.03;4996318;28;47813;-75
2022/06/08 05:28:19;;;;;;;;;2.00;2.00;;;;;18.04;69.66;100383.00;4996801;28;45473;-72
2022/06/08 05:30:45;;;;;;;;;2.00;2.00;;;;;17.25;69.06;100240.97;5002559;28;45600;-72
2022/06/08 05:33:12;;;;;;;;;2.00;2.00;;;;;18.05;69.32;100382.81;5003130;28;45492;-74
2022/06/08 05:35:38;;;;;;;;;2.00;2.00;;;;;16.61;68.79;100128.44;5007798;28;46042;-74
2022/06/08 05:38:06;;;;;;;;;4.33;3.00;;;;;18.09;69.10;100369.78;5002068;28;46231;-71
2022/06/08 05:40:33;;;;;;;;;3.00;3.00;;;;;17.83;68.98;100336.38;4986663;28;45319;-73
2022/06/08 05:43:02;;;;;;;;;6.67;3.00;;;;;17.85;69.19;100345.06;5012276;28;45556;-73
2022/06/08 05:45:30;;;;;;;;;2.00;1.00;;;;;18.02;69.15;100358.13;5004646;28;46667;-74
2022/06/08 05:47:56;;;;;;;;;3.67;3.33;;;;;17.44;69.29;100277.03;5030710;28;45479;-72
2022/06/08 05:50:23;;;;;;;;;3.33;2.00;;;;;17.99;69.52;100374.69;5022227;28;45357;-72
2022/06/08 05:52:49;;;;;;;;;2.00;2.00;;;;;18.02;69.51;100366.22;5031433;28;45546;-75
2022/06/08 05:55:17;;;;;;;;;4.00;2.67;;;;;17.95;69.21;100352.75;5032427;28;47176;-73
2022/06/08 05:57:42;;;;;;;;;3.67;1.67;;;;;18.10;69.54;100371.44;5019799;28;45345;-73
2022/06/08 06:00:12;;;;;;;;;2.00;2.00;;;;;18.11;69.74;100386.53;5033851;28;45303;-72
2022/06/08 06:02:38;;;;;;;;;3.00;2.00;;;;;17.28;69.14;100246.78;5018715;28;45519;-72
2022/06/08 06:05:04;;;;;;;;;5.67;2.00;;;;;17.65;69.51;100306.47;5026681;28;46410;-73
2022/06/08 06:07:29;;;;;;;;;7.33;6.00;;;;;17.81;70.02;100332.19;5022619;28;45254;-74
2022/06/08 06:09:55;;;;;;;;;3.33;3.33;;;;;17.94;69.78;100349.22;5016501;28;45459;-71
2022/06/08 06:12:20;;;;;;;;;2.00;1.67;;;;;17.71;69.92;100331.75;5029906;28;45416;-74
2022/06/08 06:14:46;;;;;;;;;5.00;2.00;;;;;17.82;70.24;100355.38;5036506;28;46994;-72
2022/06/08 06:17:12;;;;;;;;;2.00;1.67;;;;;17.96;70.36;100364.34;5031308;28;45706;-79
2022/06/08 06:19:37;;;;;;;;;3.00;2.00;;;;;17.10;70.13;100235.72;5037786;28;45410;-75
2022/06/08 06:22:04;;;;;;;;;4.00;2.00;;;;;17.94;70.58;100384.19;5026772;28;45600;-73
2022/06/08 06:24:30;;;;;;;;;2.00;2.00;;;;;17.81;70.19;100346.47;5032670;28;45671;-74
2022/06/08 06:26:56;;;;;;;;;1.67;1.00;;;;;17.86;70.72;100362.88;5028375;28;45499;-73
2022/06/08 06:29:22;;;;;;;;;2.67;2.67;;;;;17.95;70.71;100385.03;5039567;28;45512;-72
2022/06/08 06:31:52;;;;;;;;;2.00;2.00;;;;;16.94;70.56;100206.50;5038066;28;45459;-74
2022/06/08 06:34:22;;;;;;;;;2.33;2.00;;;;;17.83;70.40;100352.50;5026574;28;45649;-73
2022/06/08 06:36:48;;;;;;;;;3.00;3.00;;;;;17.91;71.06;100376.53;5027001;28;45465;-73
2022/06/08 06:39:14;;;;;;;;;2.00;2.00;;;;;17.28;70.66;100273.66;5029026;28;45515;-72
2022/06/08 06:41:39;;;;;;;;;2.33;2.33;;;;;17.45;70.75;100295.66;5027284;28;45629;-73
2022/06/08 06:44:05;;;;;;;;;1.33;1.33;;;;;17.87;70.76;100358.31;5032233;28;47353;-76
2022/06/08 06:46:31;;;;;;;;;2.00;1.00;;;;;17.59;70.83;100312.63;5023817;28;46113;-74
2022/06/08 06:48:57;;;;;;;;;2.67;2.33;;;;;18.00;70.90;100382.56;5033637;28;45308;-76
2022/06/08 06:51:22;;;;;;;;;3.00;3.00;;;;;18.03;70.70;100386.72;5001809;28;45614;-72
2022/06/08 06:53:48;;;;;;;;;1.00;1.00;;;;;17.14;70.72;100237.00;5021315;28;48239;-75
2022/06/08 06:56:14;;;;;;;;;2.33;2.00;;;;;18.04;70.46;100386.53;5027958;28;45486;-73
2022/06/08 06:58:40;;;;;;;;;3.00;1.67;;;;;17.73;70.53;100341.28;5040168;28;45581;-73
2022/06/08 07:01:06;;;;;;;;;1.00;1.00;;;;;17.27;70.48;100249.66;5040624;28;45426;-74
2022/06/08 07:03:33;;;;;;;;;4.00;3.00;;;;;17.68;70.85;100313.34;5028343;28;45593;-76
2022/06/08 07:05:59;;;;;;;;;4.00;2.33;;;;;18.14;70.38;100381.56;5025203;28;45581;-72
2022/06/08 07:08:25;;;;;;;;;3.00;2.00;;;;;18.13;70.94;100392.53;5026470;28;45563;-75
2022/06/08 07:13:34;;;;;;;;;0.33;0.33;;;;;17.49;70.57;100285.31;5028234;28;45467;-73
2022/06/08 07:16:00;;;;;;;;;2.00;1.00;;;;;17.84;70.86;100335.34;5036423;28;45606;-75
2022/06/08 07:18:26;;;;;;;;;2.00;2.00;;;;;18.19;70.98;100383.66;5023826;28;45380;-73
2022/06/08 07:20:52;;;;;;;;;9.33;9.33;;;;;18.05;70.71;100361.28;5028830;28;45396;-74
2022/06/08 07:23:17;;;;;;;;;3.00;2.00;;;;;18.19;70.34;100383.66;5025767;28;45640;-77
2022/06/08 07:25:43;;;;;;;;;2.00;2.00;;;;;18.00;69.91;100344.88;5031335;28;45382;-74
2022/06/08 07:28:08;;;;;;;;;2.00;2.00;;;;;17.72;70.20;100301.97;5035106;28;45349;-76
2022/06/08 07:30:33;;;;;;;;;1.00;1.00;;;;;18.28;70.26;100393.22;5031814;28;45514;-74
2022/06/08 07:32:59;;;;;;;;;1.00;1.00;;;;;17.91;70.06;100333.50;5030175;28;48014;-72
2022/06/08 07:35:25;;;;;;;;;4.00;4.00;;;;;18.32;70.39;100418.69;5038318;28;45318;-74
2022/06/08 07:37:50;;;;;;;;;3.00;1.00;;;;;18.36;70.09;100395.72;5036375;28;45534;-74
2022/06/08 07:40:15;;;;;;;;;1.00;1.00;;;;;18.38;70.25;100384.75;5041474;28;45465;-74
2022/06/08 07:42:41;;;;;;;;;2.33;1.00;;;;;17.65;69.98;100279.59;5035617;28;45535;-74
2022/06/08 07:45:14;;;;;;;;;2.33;2.33;;;;;18.47;70.12;100394.31;5024319;28;45571;-74
2022/06/08 07:50:26;;;;;;;;;1.00;1.00;;;;;18.48;70.04;100383.31;5022808;28;45530;-72
2022/06/08 07:52:52;;;;;;;;;3.33;2.00;;;;;18.39;70.28;100373.78;5026336;28;45609;-72
2022/06/08 07:55:18;;;;;;;;;1.00;1.00;;;;;18.46;69.82;100388.09;5023114;28;45463;-74
2022/06/08 07:57:47;;;;;;;;;12.00;8.33;;;;;18.58;70.08;100382.91;5020388;28;45640;-71
2022/06/08 08:00:17;;;;;;;;;0.33;0.33;;;;;18.64;69.77;100395.59;5030894;28;45335;-76
2022/06/08 08:02:42;;;;;;;;;0.00;0.00;;;;;18.14;69.49;100300.03;5038594;28;46604;-74
2022/06/08 08:05:12;;;;;;;;;0.67;0.67;;;;;18.74;69.52;100384.41;5025439;28;45470;-76
2022/06/08 08:07:39;;;;;;;;;3.67;2.00;;;;;18.72;69.57;100379.25;5023721;28;45292;-75
2022/06/08 08:10:08;;;;;;;;;1.00;1.00;;;;;18.92;69.74;100381.13;5026372;28;45546;-76
2022/06/08 08:12:34;;;;;;;;;2.00;1.00;;;;;19.03;69.39;100372.44;5033591;28;45731;-75
2022/06/08 08:14:59;;;;;;;;;6.67;5.67;;;;;18.15;69.44;100218.28;5028189;28;45864;-74
2022/06/08 08:17:24;;;;;;;;;0.67;0.67;;;;;18.48;68.75;100237.97;5032606;28;45342;-74
2022/06/08 08:19:50;;;;;;;;;1.00;1.00;;;;;19.52;68.45;100368.41;5027173;28;45429;-76
2022/06/08 08:22:19;;;;;;;;;1.67;1.00;;;;;19.77;68.39;100369.38;5032585;28;47648;-74
2022/06/08 08:24:48;;;;;;;;;1.67;1.67;;;;;19.88;67.63;100325.56;5026765;28;45316;-76
2022/06/08 08:27:14;;;;;;;;;6.00;6.00;;;;;20.55;66.99;100370.03;5035190;28;45241;-77
2022/06/08 08:29:40;;;;;;;;;2.00;2.00;;;;;20.24;65.34;100260.16;5035217;28;45455;-75
2022/06/08 08:32:09;;;;;;;;;0.33;0.00;;;;;20.53;64.75;100264.09;5033128;28;46147;-76
2022/06/08 08:34:35;;;;;;;;;0.67;0.67;;;;;20.51;64.01;100211.38;5018126;28;45522;-76
2022/06/08 08:37:01;;;;;;;;;1.00;0.00;;;;;21.39;62.35;100336.28;5017511;28;45554;-75
2022/06/08 08:39:27;;;;;;;;;2.00;1.00;;;;;21.67;62.78;100360.13;5032418;28;45263;-73
2022/06/08 08:44:40;;;;;;;;;6.00;6.00;;;;;21.67;62.46;100362.00;5031916;28;45560;-76
2022/06/08 08:47:24;;;;;;;;;2.00;2.00;;;;;21.65;61.52;100374.91;5009044;28;45773;-76
2022/06/08 08:50:17;;;;;;;;;0.33;0.33;;;;;21.54;61.95;100374.59;4998379;28;45543;-75
2022/06/08 08:52:42;;;;;;;;;1.33;1.33;;;;;21.50;62.48;100378.81;5016340;28;46320;-75
2022/06/08 08:55:29;;;;;;;;;1.00;1.00;;;;;21.36;62.23;100385.41;4994817;28;45360;-75
2022/06/08 08:58:10;;;;;;;;;0.00;0.00;;;;;21.29;62.35;100386.53;4982003;28;45520;-76
2022/06/08 09:00:59;;;;;;;;;0.00;0.00;;;;;20.83;63.19;100314.78;5006213;28;45457;-76
2022/06/08 09:03:39;;;;;;;;;0.00;0.00;;;;;20.87;62.98;100324.91;4998444;28;45586;-77
2022/06/08 09:06:15;;;;;;;;;0.00;0.00;;;;;21.17;63.05;100383.69;5004109;28;45609;-74
2022/06/08 09:08:47;;;;;;;;;1.50;1.50;;;;;20.83;63.69;100339.91;4997379;28;45564;-74
2022/06/08 09:11:30;;;;;;;;;0.67;0.00;;;;;21.19;63.40;100395.09;4996913;28;45553;-76
2022/06/08 09:14:02;;;;;;;;;0.00;0.00;;;;;20.44;63.19;100265.44;5005044;28;46425;-77
2022/06/08 09:16:29;;;;;;;;;1.00;0.25;;;;;21.04;63.94;100360.31;4987065;28;45735;-77
2022/06/08 09:18:55;;;;;;;;;12.67;12.67;;;;;21.20;64.01;100331.88;4989469;28;45291;-76
2022/06/08 09:21:29;;;;;;;;;3.00;3.00;;;;;21.94;63.60;100393.09;5005771;28;45328;-73
2022/06/08 09:23:58;;;;;;;;;1.67;1.67;;;;;21.84;62.20;100279.97;4983729;28;46646;-76
2022/06/08 09:26:24;;;;;;;;;1.00;1.00;;;;;22.87;59.80;100383.72;5009707;28;45468;-77
2022/06/08 09:29:23;;;;;;;;;7.33;7.00;;;;;23.20;59.69;100378.53;4999238;28;45545;-75
2022/06/08 09:31:50;;;;;;;;;1.00;1.00;;;;;23.51;56.56;100346.69;5007404;28;45357;-75
2022/06/08 09:34:26;;;;;;;;;2.00;2.00;;;;;23.92;55.02;100386.41;4991132;28;47616;-76
2022/06/08 09:37:11;;;;;;;;;5.00;5.00;;;;;24.22;56.18;100384.28;4983097;28;45921;-76
2022/06/08 09:39:37;;;;;;;;;1.33;1.33;;;;;24.30;55.20;100361.38;5014196;28;45677;-77
2022/06/08 09:42:34;;;;;;;;;1.00;1.00;;;;;24.39;55.03;100343.59;5006718;28;45670;-78
2022/06/08 09:45:25;;;;;;;;;1.00;1.00;;;;;24.87;52.82;100383.84;5001101;28;47520;-76
2022/06/08 09:53:46;;;;;;;;;3.00;3.00;;;;;25.64;49.38;100371.41;5043593;28;45445;-76
2022/06/08 09:56:33;;;;;;;;;31.67;31.67;;;;;25.72;49.63;100371.00;5026407;28;46308;-74
2022/06/08 09:59:27;;;;;;;;;2.00;2.00;;;;;25.85;50.45;100364.38;5038693;28;45482;-77
2022/06/08 10:02:01;;;;;;;;;2.50;2.00;;;;;26.19;49.96;100368.56;5043617;28;45341;-76
2022/06/08 10:05:01;;;;;;;;;2.00;2.00;;;;;26.47;47.66;100370.25;5037132;28;45476;-75
2022/06/08 10:07:52;;;;;;;;;2.00;1.00;;;;;26.62;46.93;100364.09;5028458;28;48435;-76
2022/06/08 10:10:27;;;;;;;;;3.00;1.00;;;;;26.69;47.24;100362.00;5001192;28;45308;-77
2022/06/08 10:12:58;;;;;;;;;4.33;4.33;;;;;26.68;46.56;100358.44;5020390;28;45234;-75
2022/06/08 10:15:42;;;;;;;;;1.25;0.25;;;;;26.57;46.89;100350.44;5026261;28;45581;-75
2022/06/08 10:18:35;;;;;;;;;4.00;4.00;;;;;26.38;47.50;100329.00;5040570;28;46276;-76
2022/06/08 10:21:22;;;;;;;;;4.00;4.00;;;;;26.28;48.14;100345.22;5038385;28;45516;-76
2022/06/08 10:24:07;;;;;;;;;2.00;2.00;;;;;26.03;46.89;100312.28;5035131;28;45831;-76
2022/06/08 10:26:51;;;;;;;;;1.00;1.00;;;;;23.76;45.34;99974.56;5052261;28;45484;-78
2022/06/08 10:29:40;;;;;;;;;1.00;1.00;;;;;25.96;46.90;100341.59;5045655;28;48139;-78
2022/06/08 10:32:28;;;;;;;;;0.67;0.67;;;;;25.93;46.58;100342.13;5036612;28;45293;-75
2022/06/08 10:34:54;;;;;;;;;4.67;4.67;;;;;25.79;46.46;100341.66;5038867;28;45561;-78
2022/06/08 10:37:41;;;;;;;;;3.00;3.00;;;;;25.52;46.09;100333.41;5030399;28;45451;-78
2022/06/08 10:40:09;;;;;;;;;1.33;1.33;;;;;24.92;45.91;100282.50;5039739;28;45413;-77
2022/06/08 10:42:41;;;;;;;;;3.00;2.00;;;;;24.64;48.32;100331.53;5027434;28;45531;-78
2022/06/08 10:45:24;;;;;;;;;6.33;4.33;;;;;24.60;50.71;100371.13;5027510;28;45546;-76
2022/06/08 10:48:01;;;;;;;;;4.00;4.00;;;;;24.25;52.06;100372.94;5028824;28;45293;-80
2022/06/08 10:50:39;;;;;;;;;1.67;1.67;;;;;23.89;52.41;100355.13;5037809;28;47582;-77
2022/06/08 10:56:23;;;;;;;;;4.33;2.33;;;;;23.00;54.19;100269.59;5038765;28;45518;-76
2022/06/08 10:58:57;;;;;;;;;2.33;2.33;;;;;23.27;53.90;100332.34;5050519;28;45273;-76
2022/06/08 11:02:03;;;;;;;;;13.33;11.00;;;;;23.28;54.38;100353.78;5043591;28;45541;-78
2022/06/08 11:04:32;;;;;;;;;4.67;3.33;;;;;22.53;54.73;100264.16;5009285;28;45545;-77
2022/06/08 11:07:02;;;;;;;;;6.33;6.33;;;;;22.96;55.86;100345.16;5047183;28;45449;-77
2022/06/08 11:09:33;;;;;;;;;2.00;2.00;;;;;23.19;56.92;100389.63;5035047;28;45368;-82
2022/06/08 11:12:11;;;;;;;;;7.00;7.00;;;;;23.21;57.33;100382.06;5039165;28;45577;-77
2022/06/08 11:14:42;;;;;;;;;4.67;3.67;;;;;23.26;56.87;100372.19;5036429;28;46187;-77
2022/06/08 11:17:29;;;;;;;;;9.33;8.00;;;;;23.22;57.23;100356.59;5033303;28;45374;-78
2022/06/08 11:20:20;;;;;;;;;6.67;5.00;;;;;23.40;55.71;100382.78;5030030;28;46590;-76
2022/06/08 11:22:53;;;;;;;;;4.00;2.00;;;;;23.06;54.82;100322.91;5037167;28;47131;-77
2022/06/08 11:25:30;;;;;;;;;3.00;3.00;;;;;23.12;53.94;100335.50;5029025;28;45413;-79
2022/06/08 11:28:24;;;;;;;;;6.00;5.00;;;;;23.21;53.31;100372.06;5020954;28;45485;-77
2022/06/08 11:30:52;;;;;;;;;3.00;3.00;;;;;23.05;53.29;100365.47;5033191;28;45432;-77
2022/06/08 11:33:19;;;;;;;;;3.00;3.00;;;;;23.03;53.67;100366.78;5031508;28;46532;-77
2022/06/08 11:35:53;;;;;;;;;4.33;4.33;;;;;23.20;53.78;100377.72;5029429;28;45364;-77
2022/06/08 11:38:46;;;;;;;;;5.33;5.33;;;;;22.73;54.11;100263.81;5049058;28;45413;-78
2022/06/08 11:41:32;;;;;;;;;3.00;3.00;;;;;23.57;52.24;100362.03;5056462;28;45296;-77
2022/06/08 11:44:09;;;;;;;;;4.67;4.00;;;;;22.76;51.97;100223.50;5059905;28;45976;-75
2022/06/08 11:46:38;;;;;;;;;2.67;2.67;;;;;23.71;51.58;100362.59;5041180;28;45403;-74
2022/06/08 11:49:07;;;;;;;;;4.67;4.00;;;;;23.32;50.93;100289.03;5024604;28;45534;-73
2022/06/08 11:51:40;;;;;;;;;2.00;2.00;;;;;23.93;50.73;100360.88;5027433;28;45572;-75
2022/06/08 11:54:25;;;;;;;;;3.00;3.00;;;;;23.98;49.43;100358.28;5029439;28;45895;-75
2022/06/08 11:57:21;;;;;;;;;6.67;5.00;;;;;24.04;48.48;100361.94;5029898;28;45281;-74
2022/06/08 11:59:47;;;;;;;;;5.33;5.33;;;;;23.71;46.76;100308.31;5034683;28;45213;-73
2022/06/08 12:02:25;;;;;;;;;4.00;3.00;;;;;22.51;46.90;100117.28;5047281;28;45578;-76
2022/06/08 12:04:55;;;;;;;;;4.00;3.00;;;;;24.17;47.40;100361.63;5037932;28;45551;-74